createdAt,value
2019-05-09T00:00:04.121Z,9.20
2019-05-09T00:02:44.223Z,9.22
2019-05-09T00:05:14.379Z,9.23
2019-05-09T00:07:44.674Z,9.22
2019-05-09T00:10:14.354Z,9.21
2019-05-09T00:12:43.879Z,9.22
2019-05-09T00:15:14.042Z,9.22
2019-05-09T00:17:43.963Z,9.21
2019-05-09T00:20:20.826Z,9.23
2019-05-09T00:22:50.241Z,9.25
2019-05-09T00:25:19.718Z,9.25
2019-05-09T00:27:49.064Z,9.30
2019-05-09T00:30:22.674Z,9.32
2019-05-09T00:32:53.344Z,9.32
2019-05-09T00:35:33.826Z,9.29
2019-05-09T00:38:08.039Z,9.28
2019-05-09T00:40:37.661Z,9.24
2019-05-09T00:43:07.117Z,9.24
2019-05-09T00:45:58.373Z,9.22
2019-05-09T00:48:43.960Z,9.24
2019-05-09T00:51:14.133Z,9.26
2019-05-09T00:53:44.443Z,9.25
2019-05-09T00:56:14.120Z,9.24
2019-05-09T00:58:44.179Z,9.26
2019-05-09T01:01:15.002Z,9.29
2019-05-09T01:03:44.547Z,9.25
2019-05-09T01:06:15.856Z,9.26
2019-05-09T01:08:45.242Z,9.22
2019-05-09T01:11:15.603Z,9.18
2019-05-09T01:13:45.248Z,9.17
2019-05-09T01:16:14.671Z,9.11
2019-05-09T01:18:44.132Z,9.08
2019-05-09T01:21:13.604Z,9.07
2019-05-09T01:23:43.741Z,9.06
2019-05-09T01:26:13.416Z,9.04
2019-05-09T01:28:44.202Z,9.00
2019-05-09T01:31:13.684Z,8.99
2019-05-09T01:33:53.276Z,8.98
2019-05-09T01:36:23.476Z,8.96
2019-05-09T01:38:53.998Z,8.98
2019-05-09T01:41:30.500Z,8.98
2019-05-09T01:43:54.924Z,8.98
2019-05-09T01:46:24.708Z,8.99
2019-05-09T01:48:54.137Z,9.03
2019-05-09T01:51:23.600Z,9.01
2019-05-09T01:53:54.723Z,9.00
2019-05-09T01:56:24.017Z,8.98
2019-05-09T01:58:54.112Z,8.97
2019-05-09T02:01:24.263Z,8.91
2019-05-09T02:03:53.961Z,8.90
2019-05-09T02:06:24.397Z,8.86
2019-05-09T02:08:54.625Z,8.82
2019-05-09T02:11:38.424Z,8.80
2019-05-09T02:13:55.450Z,8.77
2019-05-09T02:16:44.384Z,8.75
2019-05-09T02:19:38.912Z,8.70
2019-05-09T02:22:25.911Z,8.58
2019-05-09T02:24:55.432Z,8.46
2019-05-09T02:27:24.791Z,8.32
2019-05-09T02:29:54.476Z,8.17
2019-05-09T02:32:24.213Z,8.01
2019-05-09T02:34:54.772Z,7.84
2019-05-09T02:37:24.491Z,7.75
2019-05-09T02:39:53.874Z,7.72
2019-05-09T02:42:23.407Z,7.72
2019-05-09T02:44:52.817Z,7.75
2019-05-09T02:47:24.078Z,7.75
2019-05-09T02:49:53.422Z,7.74
2019-05-09T02:52:23.048Z,7.68
2019-05-09T02:54:52.474Z,7.66
2019-05-09T02:57:21.853Z,7.60
2019-05-09T03:00:29.074Z,7.54
2019-05-09T03:03:19.497Z,7.52
2019-05-09T03:05:48.802Z,7.37
2019-05-09T03:08:19.149Z,7.30
2019-05-09T03:10:49.321Z,7.25
2019-05-09T03:13:19.296Z,7.17
2019-05-09T03:15:50.487Z,7.09
2019-05-09T03:18:19.810Z,7.04
2019-05-09T03:20:58.513Z,6.99
2019-05-09T03:23:28.497Z,6.97
2019-05-09T03:26:00.472Z,6.93
2019-05-09T03:28:51.525Z,6.91
2019-05-09T03:31:22.316Z,6.87
2019-05-09T03:33:51.778Z,6.81
2019-05-09T03:36:21.309Z,6.78
2019-05-09T03:38:50.638Z,6.77
2019-05-09T03:41:20.065Z,6.80
2019-05-09T03:43:49.435Z,6.76
2019-05-09T03:46:35.471Z,6.73
2019-05-09T03:49:07.475Z,6.67
2019-05-09T03:51:37.929Z,6.63
2019-05-09T03:54:08.090Z,6.62
2019-05-09T03:56:41.736Z,6.67
2019-05-09T03:59:11.110Z,6.64
2019-05-09T04:01:40.664Z,6.60
2019-05-09T04:04:10.032Z,6.55
2019-05-09T04:06:39.508Z,6.49
2019-05-09T04:09:08.947Z,6.48
2019-05-09T04:11:38.383Z,6.45
2019-05-09T04:14:11.419Z,6.44
2019-05-09T04:16:40.932Z,6.40
2019-05-09T04:19:10.281Z,6.38
2019-05-09T04:21:39.744Z,6.38
2019-05-09T04:24:09.171Z,6.37
2019-05-09T04:26:50.295Z,6.37
2019-05-09T04:29:19.699Z,6.42
2019-05-09T04:31:49.183Z,6.44
2019-05-09T04:34:18.580Z,6.46
2019-05-09T04:36:48.485Z,6.49
2019-05-09T04:39:23.353Z,6.54
2019-05-09T04:41:49.290Z,6.60
2019-05-09T04:44:49.899Z,6.65
2019-05-09T04:47:17.802Z,6.67
2019-05-09T04:49:47.957Z,6.77
2019-05-09T04:52:18.146Z,6.85
2019-05-09T04:54:48.500Z,6.92
2019-05-09T04:57:18.150Z,6.99
2019-05-09T04:59:47.708Z,7.06
2019-05-09T05:02:27.460Z,7.10
2019-05-09T05:04:58.533Z,7.12
2019-05-09T05:07:28.714Z,7.15
2019-05-09T05:09:58.920Z,7.18
2019-05-09T05:12:28.350Z,7.20
2019-05-09T05:14:58.154Z,7.24
2019-05-09T05:17:30.491Z,7.29
2019-05-09T05:20:00.434Z,7.37
2019-05-09T05:22:41.738Z,7.46
2019-05-09T05:25:11.152Z,7.50
2019-05-09T05:27:40.542Z,7.59
2019-05-09T05:30:10.084Z,7.63
2019-05-09T05:32:58.016Z,7.74
2019-05-09T05:35:32.726Z,7.82
2019-05-09T05:38:02.199Z,7.91
2019-05-09T05:40:33.702Z,8.00
2019-05-09T05:43:02.845Z,8.11
2019-05-09T05:45:37.500Z,8.20
2019-05-09T05:48:19.942Z,8.29
2019-05-09T05:50:49.411Z,8.41
2019-05-09T05:53:19.031Z,8.49
2019-05-09T05:55:52.544Z,8.59
2019-05-09T05:58:19.783Z,8.70
2019-05-09T06:00:49.331Z,8.80
2019-05-09T06:03:19.730Z,8.90
2019-05-09T06:05:51.688Z,9.06
2019-05-09T06:08:20.276Z,9.13
2019-05-09T06:10:49.799Z,9.22
2019-05-09T06:13:19.193Z,9.27
2019-05-09T06:15:48.617Z,9.36
2019-05-09T06:18:20.503Z,9.48
2019-05-09T06:20:49.960Z,9.54
2019-05-09T06:23:19.469Z,9.61
2019-05-09T06:25:48.924Z,9.67
2019-05-09T06:28:18.436Z,9.73
2019-05-09T06:30:47.943Z,9.79
2019-05-09T06:33:18.105Z,9.82
2019-05-09T06:35:48.187Z,9.89
2019-05-09T06:38:18.699Z,10.00
2019-05-09T06:40:48.356Z,10.03
2019-05-09T06:43:19.323Z,10.17
2019-05-09T06:46:08.170Z,10.27
2019-05-09T06:48:38.037Z,10.33
2019-05-09T06:51:07.525Z,10.23
2019-05-09T06:53:38.710Z,10.22
2019-05-09T06:56:08.131Z,10.29
2019-05-09T06:58:38.386Z,10.28
2019-05-09T07:01:30.362Z,10.38
2019-05-09T07:04:13.890Z,10.63
2019-05-09T07:06:49.986Z,10.64
2019-05-09T07:09:32.044Z,10.66
2019-05-09T07:12:01.522Z,10.76
2019-05-09T07:14:41.888Z,10.89
2019-05-09T07:17:11.158Z,10.99
2019-05-09T07:19:43.765Z,11.19
2019-05-09T07:22:29.116Z,11.38
2019-05-09T07:25:11.235Z,11.47
2019-05-09T07:27:41.023Z,11.47
2019-05-09T07:30:20.828Z,11.56
2019-05-09T07:33:08.604Z,11.67
2019-05-09T07:35:38.373Z,11.87
2019-05-09T07:38:08.567Z,11.97
2019-05-09T07:40:38.642Z,12.10
2019-05-09T07:43:08.426Z,12.27
2019-05-09T07:45:40.075Z,12.23
2019-05-09T07:48:09.557Z,12.24
2019-05-09T07:50:39.133Z,12.45
2019-05-09T07:53:08.991Z,12.75
2019-05-09T07:55:38.674Z,13.05
2019-05-09T07:58:08.338Z,13.43
2019-05-09T08:00:38.665Z,13.68
2019-05-09T08:03:12.609Z,13.92
2019-05-09T08:05:39.325Z,14.32
2019-05-09T08:08:11.781Z,14.57
2019-05-09T08:10:41.258Z,14.66
2019-05-09T08:13:11.964Z,14.78
2019-05-09T08:15:41.830Z,14.97
2019-05-09T08:18:11.348Z,15.21
2019-05-09T08:20:40.894Z,15.41
2019-05-09T08:23:10.291Z,15.37
2019-05-09T08:25:39.837Z,15.23
2019-05-09T08:28:09.417Z,14.97
2019-05-09T08:30:40.606Z,14.78
2019-05-09T08:33:10.555Z,14.50
2019-05-09T08:35:40.941Z,14.11
2019-05-09T08:38:10.796Z,13.93
2019-05-09T08:40:40.749Z,13.87
2019-05-09T08:43:10.215Z,13.95
2019-05-09T08:45:39.635Z,13.97
2019-05-09T08:48:09.604Z,14.14
2019-05-09T08:50:52.332Z,14.37
2019-05-09T08:53:22.182Z,14.46
2019-05-09T08:55:51.604Z,14.76
2019-05-09T08:58:20.969Z,15.22
2019-05-09T09:00:53.321Z,15.59
2019-05-09T09:03:22.822Z,16.22
2019-05-09T09:05:52.390Z,16.69
2019-05-09T09:08:21.831Z,17.14
2019-05-09T09:10:51.377Z,17.11
2019-05-09T09:13:20.909Z,17.00
2019-05-09T09:16:08.507Z,16.95
2019-05-09T09:18:21.643Z,16.95
2019-05-09T09:20:51.024Z,17.33
2019-05-09T09:23:20.436Z,17.37
2019-05-09T09:25:49.900Z,17.47
2019-05-09T09:28:19.354Z,17.34
2019-05-09T09:30:48.856Z,17.01
2019-05-09T09:33:18.235Z,16.88
2019-05-09T09:35:49.021Z,17.37
2019-05-09T09:38:18.634Z,17.93
2019-05-09T09:40:48.152Z,17.83
2019-05-09T09:43:17.798Z,17.65
2019-05-09T09:45:48.282Z,17.52
2019-05-09T09:48:18.665Z,17.23
2019-05-09T09:50:51.369Z,16.87
2019-05-09T09:53:19.280Z,16.82
2019-05-09T09:55:48.669Z,17.30
2019-05-09T09:58:19.190Z,17.94
2019-05-09T10:01:18.254Z,18.51
2019-05-09T10:03:49.009Z,18.88
2019-05-09T10:06:18.558Z,18.89
2019-05-09T10:08:49.034Z,18.90
2019-05-09T10:11:18.637Z,18.82
2019-05-09T10:13:51.747Z,18.99
2019-05-09T10:16:35.862Z,19.26
2019-05-09T10:19:18.550Z,19.58
2019-05-09T10:21:50.980Z,20.04
2019-05-09T10:24:22.596Z,20.45
2019-05-09T10:27:09.192Z,20.47
2019-05-09T10:29:39.111Z,20.51
2019-05-09T10:32:12.067Z,20.25
2019-05-09T10:34:41.568Z,20.41
2019-05-09T10:37:11.085Z,20.43
2019-05-09T10:39:40.518Z,20.14
2019-05-09T10:42:18.812Z,19.90
2019-05-09T10:44:53.877Z,19.97
2019-05-09T10:47:27.322Z,20.11
2019-05-09T10:49:58.209Z,20.37
2019-05-09T10:52:28.323Z,20.41
2019-05-09T10:54:59.088Z,20.31
2019-05-09T10:57:31.607Z,20.42
2019-05-09T10:59:59.681Z,20.97
2019-05-09T11:02:29.097Z,21.38
2019-05-09T11:04:58.509Z,21.72
2019-05-09T11:07:28.956Z,21.76
2019-05-09T11:09:59.064Z,21.54
2019-05-09T11:12:28.967Z,21.64
2019-05-09T11:14:59.364Z,21.97
2019-05-09T11:17:29.249Z,22.00
2019-05-09T11:19:59.044Z,22.02
2019-05-09T11:22:29.359Z,21.88
2019-05-09T11:24:59.161Z,21.63
2019-05-09T11:27:29.364Z,21.75
2019-05-09T11:29:58.971Z,22.46
2019-05-09T11:32:28.552Z,23.14
2019-05-09T11:34:58.081Z,23.00
2019-05-09T11:37:27.552Z,23.11
2019-05-09T11:39:58.029Z,23.04
2019-05-09T11:42:28.485Z,23.05
2019-05-09T11:44:58.374Z,22.90
2019-05-09T11:47:36.437Z,22.20
2019-05-09T11:49:58.910Z,21.63
2019-05-09T11:52:28.988Z,21.29
2019-05-09T11:54:58.570Z,21.13
2019-05-09T11:57:31.334Z,20.84
2019-05-09T11:59:59.219Z,21.14
2019-05-09T12:02:28.718Z,21.98
2019-05-09T12:04:58.227Z,22.74
2019-05-09T12:07:28.818Z,23.12
2019-05-09T12:09:59.091Z,23.27
2019-05-09T12:12:28.667Z,23.53
2019-05-09T12:14:59.237Z,24.26
2019-05-09T12:17:40.834Z,25.25
2019-05-09T12:20:09.607Z,25.39
2019-05-09T12:22:31.153Z,24.83
2019-05-09T12:25:00.621Z,24.14
2019-05-09T12:27:30.085Z,23.66
2019-05-09T12:30:00.619Z,23.37
2019-05-09T12:32:30.111Z,23.30
2019-05-09T12:34:59.533Z,23.76
2019-05-09T12:37:28.946Z,23.97
2019-05-09T12:39:58.677Z,24.00
2019-05-09T12:42:29.277Z,24.47
2019-05-09T12:44:59.217Z,25.30
2019-05-09T12:47:29.276Z,25.06
2019-05-09T12:50:02.688Z,24.40
2019-05-09T12:52:30.002Z,23.75
2019-05-09T12:55:02.562Z,22.88
2019-05-09T12:57:32.732Z,22.24
2019-05-09T13:00:02.173Z,22.32
2019-05-09T13:02:31.570Z,22.55
2019-05-09T13:05:01.089Z,22.89
2019-05-09T13:07:30.549Z,23.01
2019-05-09T13:10:00.058Z,23.17
2019-05-09T13:12:29.449Z,23.30
2019-05-09T13:14:58.945Z,23.46
2019-05-09T13:17:33.754Z,24.01
2019-05-09T13:20:03.974Z,24.36
2019-05-09T13:22:33.337Z,24.63
2019-05-09T13:25:03.132Z,24.84
2019-05-09T13:27:32.757Z,25.04
2019-05-09T13:30:02.519Z,25.39
2019-05-09T13:32:32.135Z,25.63
2019-05-09T13:35:01.716Z,26.22
2019-05-09T13:37:31.177Z,26.52
2019-05-09T13:40:00.663Z,26.02
2019-05-09T13:42:30.130Z,25.47
2019-05-09T13:44:59.550Z,24.77
2019-05-09T13:47:29.993Z,24.07
2019-05-09T13:49:59.673Z,23.53
2019-05-09T13:52:29.051Z,22.92
2019-05-09T13:54:58.785Z,22.57
2019-05-09T13:57:28.348Z,22.26
2019-05-09T13:59:59.625Z,21.90
2019-05-09T14:02:29.619Z,21.59
2019-05-09T14:04:59.261Z,21.26
2019-05-09T14:07:29.718Z,21.16
2019-05-09T14:09:59.189Z,20.93
2019-05-09T14:12:29.027Z,20.81
2019-05-09T14:14:58.849Z,20.70
2019-05-09T14:17:44.908Z,20.48
2019-05-09T14:19:59.643Z,20.32
2019-05-09T14:22:29.061Z,20.32
2019-05-09T14:24:58.701Z,20.31
2019-05-09T14:27:28.973Z,20.36
2019-05-09T14:29:59.540Z,20.09
2019-05-09T14:32:33.142Z,19.84
2019-05-09T14:35:00.379Z,19.64
2019-05-09T14:37:31.703Z,19.43
2019-05-09T14:40:04.405Z,19.23
2019-05-09T14:42:32.204Z,19.13
2019-05-09T14:45:01.612Z,19.11
2019-05-09T14:47:31.148Z,19.01
2019-05-09T14:50:00.547Z,19.01
2019-05-09T14:52:29.958Z,18.99
2019-05-09T14:54:59.318Z,18.93
2019-05-09T14:57:29.812Z,18.90
2019-05-09T14:59:59.214Z,18.85
2019-05-09T15:02:28.638Z,18.78
2019-05-09T15:04:58.676Z,18.83
2019-05-09T15:07:28.520Z,18.75
2019-05-09T15:09:59.934Z,18.69
2019-05-09T15:12:29.287Z,18.50
2019-05-09T15:14:58.780Z,18.28
2019-05-09T15:17:28.283Z,18.10
2019-05-09T15:20:00.601Z,17.94
2019-05-09T15:22:28.985Z,17.86
2019-05-09T15:24:59.127Z,17.74
2019-05-09T15:27:38.481Z,17.73
2019-05-09T15:30:08.260Z,17.54
2019-05-09T15:32:37.899Z,17.44
2019-05-09T15:35:09.001Z,17.51
2019-05-09T15:37:38.933Z,17.44
2019-05-09T15:40:09.028Z,17.52
2019-05-09T15:42:39.084Z,17.65
2019-05-09T15:45:09.320Z,17.87
2019-05-09T15:47:38.838Z,18.02
2019-05-09T15:50:19.175Z,18.09
2019-05-09T15:52:39.537Z,18.25
2019-05-09T15:55:09.844Z,18.35
2019-05-09T15:57:39.439Z,18.53
2019-05-09T16:00:11.641Z,18.62
2019-05-09T16:02:41.030Z,18.76
2019-05-09T16:05:10.874Z,19.02
2019-05-09T16:07:40.628Z,19.30
2019-05-09T16:10:10.189Z,19.34
2019-05-09T16:12:39.625Z,19.26
2019-05-09T16:15:09.188Z,20.35
2019-05-09T16:17:39.435Z,22.22
2019-05-09T16:20:09.427Z,24.85
2019-05-09T16:22:39.397Z,26.59
2019-05-09T16:25:09.411Z,27.62
2019-05-09T16:27:39.004Z,27.90
2019-05-09T16:30:09.872Z,27.56
2019-05-09T16:32:39.291Z,28.43
2019-05-09T16:35:08.870Z,29.08
2019-05-09T16:37:56.824Z,28.87
2019-05-09T16:40:09.695Z,28.75
2019-05-09T16:42:39.131Z,27.98
2019-05-09T16:45:10.095Z,27.60
2019-05-09T16:47:39.651Z,26.84
2019-05-09T16:50:12.104Z,26.22
2019-05-09T16:52:43.624Z,25.44
2019-05-09T16:55:18.083Z,24.09
2019-05-09T16:57:47.803Z,22.17
2019-05-09T17:00:31.227Z,20.77
2019-05-09T17:03:00.692Z,19.92
2019-05-09T17:05:30.107Z,19.18
2019-05-09T17:07:59.621Z,18.75
2019-05-09T17:10:29.017Z,18.31
2019-05-09T17:12:58.803Z,17.87
2019-05-09T17:15:29.277Z,17.55
2019-05-09T17:17:58.962Z,17.43
2019-05-09T17:20:38.269Z,17.33
2019-05-09T17:23:14.772Z,17.30
2019-05-09T17:25:42.087Z,17.38
2019-05-09T17:28:11.551Z,17.39
2019-05-09T17:30:41.060Z,17.40
2019-05-09T17:33:10.661Z,17.27
2019-05-09T17:35:40.038Z,17.09
2019-05-09T17:38:09.507Z,16.88
2019-05-09T17:40:39.424Z,16.69
2019-05-09T17:43:09.105Z,16.46
2019-05-09T17:45:41.876Z,16.22
2019-05-09T17:48:09.796Z,16.06
2019-05-09T17:50:39.309Z,16.02
2019-05-09T17:53:08.824Z,16.04
2019-05-09T17:55:38.441Z,16.24
2019-05-09T17:58:09.087Z,16.36
2019-05-09T18:00:38.587Z,16.39
2019-05-09T18:03:07.972Z,16.42
2019-05-09T18:05:38.978Z,16.66
2019-05-09T18:08:08.580Z,17.10
2019-05-09T18:10:38.293Z,17.60
2019-05-09T18:13:08.265Z,17.96
2019-05-09T18:15:38.235Z,18.25
2019-05-09T18:18:07.739Z,18.29
2019-05-09T18:20:37.921Z,18.07
2019-05-09T18:23:08.463Z,17.72
2019-05-09T18:25:38.111Z,17.40
2019-05-09T18:28:07.683Z,17.02
2019-05-09T18:30:38.844Z,16.53
2019-05-09T18:33:13.320Z,15.98
2019-05-09T18:35:42.837Z,15.46
2019-05-09T18:38:19.840Z,14.97
2019-05-09T18:40:49.371Z,14.57
2019-05-09T18:43:19.008Z,14.24
2019-05-09T18:45:48.729Z,13.90
2019-05-09T18:48:18.694Z,13.52
2019-05-09T18:50:48.280Z,13.15
2019-05-09T18:53:17.672Z,12.83
2019-05-09T18:55:47.039Z,12.56
2019-05-09T18:58:16.582Z,12.31
2019-05-09T19:00:46.303Z,12.08
2019-05-09T19:03:15.836Z,11.88
2019-05-09T19:05:45.231Z,11.66
2019-05-09T19:08:14.808Z,11.44
2019-05-09T19:10:44.245Z,11.24
2019-05-09T19:13:13.973Z,11.06
2019-05-09T19:16:05.976Z,10.89
2019-05-09T19:18:43.523Z,10.72
2019-05-09T19:21:28.808Z,10.53
2019-05-09T19:23:58.297Z,10.39
2019-05-09T19:26:36.696Z,10.22
2019-05-09T19:29:08.092Z,10.07
2019-05-09T19:31:38.630Z,9.93
2019-05-09T19:34:09.157Z,9.83
2019-05-09T19:36:38.614Z,9.72
2019-05-09T19:39:10.154Z,9.64
2019-05-09T19:41:40.090Z,9.59
2019-05-09T19:44:09.926Z,9.62
2019-05-09T19:46:39.379Z,9.72
2019-05-09T19:49:08.735Z,9.81
2019-05-09T19:51:38.176Z,9.87
2019-05-09T19:54:07.664Z,9.90
2019-05-09T19:56:37.191Z,9.98
2019-05-09T19:59:08.048Z,10.05
2019-05-09T20:01:38.685Z,10.14
2019-05-09T20:04:08.295Z,10.30
2019-05-09T20:06:37.839Z,10.45
2019-05-09T20:09:14.251Z,10.60
2019-05-09T20:12:05.383Z,10.76
2019-05-09T20:14:37.874Z,10.92
2019-05-09T20:17:07.375Z,11.21
2019-05-09T20:19:36.892Z,11.65
2019-05-09T20:22:06.407Z,11.99
2019-05-09T20:24:35.841Z,12.21
2019-05-09T20:27:05.424Z,12.36
2019-05-09T20:29:34.800Z,12.44
2019-05-09T20:32:04.532Z,12.53
2019-05-09T20:34:34.022Z,12.61
2019-05-09T20:37:03.432Z,12.66
2019-05-09T20:39:33.052Z,12.69
2019-05-09T20:42:02.734Z,12.69
2019-05-09T20:44:32.312Z,12.71
2019-05-09T20:47:02.065Z,12.69
2019-05-09T20:49:31.595Z,12.69
2019-05-09T20:52:01.293Z,12.68
2019-05-09T20:54:30.833Z,12.68
2019-05-09T20:57:00.535Z,12.75
2019-05-09T20:59:30.279Z,12.75
2019-05-09T21:01:59.954Z,12.88
2019-05-09T21:04:29.711Z,12.92
2019-05-09T21:06:59.388Z,12.96
2019-05-09T21:09:28.995Z,13.06
2019-05-09T21:11:58.821Z,12.98
2019-05-09T21:14:28.485Z,13.05
2019-05-09T21:16:58.141Z,13.15
2019-05-09T21:19:27.755Z,13.17
2019-05-09T21:21:57.398Z,13.09
2019-05-09T21:24:27.203Z,13.15
2019-05-09T21:26:56.823Z,13.17
2019-05-09T21:29:26.401Z,13.12
2019-05-09T21:31:56.061Z,13.05
2019-05-09T21:34:25.824Z,13.04
2019-05-09T21:36:55.344Z,13.05
2019-05-09T21:39:24.732Z,13.06
2019-05-09T21:41:54.173Z,12.96
2019-05-09T21:44:23.574Z,12.79
2019-05-09T21:46:53.115Z,12.86
2019-05-09T21:49:22.705Z,12.85
2019-05-09T21:51:52.165Z,12.73
2019-05-09T21:54:21.624Z,12.73
2019-05-09T21:56:51.071Z,12.73
2019-05-09T21:59:20.455Z,12.61
2019-05-09T22:01:50.012Z,12.47
2019-05-09T22:04:19.453Z,12.47
2019-05-09T22:06:49.041Z,12.53
2019-05-09T22:09:18.632Z,12.42
2019-05-09T22:11:48.181Z,12.35
2019-05-09T22:14:17.661Z,12.36
2019-05-09T22:16:48.724Z,12.19
2019-05-09T22:19:18.208Z,12.07
2019-05-09T22:21:47.653Z,11.95
2019-05-09T22:24:17.035Z,11.85
2019-05-09T22:26:46.751Z,12.03
2019-05-09T22:29:16.889Z,12.15
2019-05-09T22:31:46.373Z,12.23
2019-05-09T22:34:15.821Z,12.30
2019-05-09T22:36:45.333Z,12.34
2019-05-09T22:39:14.758Z,12.30
2019-05-09T22:41:44.355Z,12.26
2019-05-09T22:44:13.870Z,12.32
2019-05-09T22:46:43.290Z,12.24
2019-05-09T22:49:12.704Z,12.31
2019-05-09T22:51:42.154Z,12.22
2019-05-09T22:54:13.186Z,12.19
2019-05-09T22:56:42.827Z,12.21
2019-05-09T22:59:12.332Z,12.16
2019-05-09T23:01:41.891Z,12.23
2019-05-09T23:04:11.348Z,12.22
2019-05-09T23:06:40.710Z,12.28
2019-05-09T23:09:10.209Z,12.30
2019-05-09T23:11:40.927Z,12.23
2019-05-09T23:14:10.449Z,12.25
2019-05-09T23:16:41.291Z,12.22
2019-05-09T23:19:10.744Z,12.22
2019-05-09T23:21:40.190Z,12.16
2019-05-09T23:24:26.505Z,12.08
2019-05-09T23:26:42.839Z,12.01
2019-05-09T23:29:12.357Z,11.97
2019-05-09T23:32:06.713Z,11.95
2019-05-09T23:34:36.207Z,11.89
2019-05-09T23:37:05.552Z,11.86
2019-05-09T23:39:39.763Z,11.87
2019-05-09T23:42:09.250Z,12.01
2019-05-09T23:44:38.773Z,11.89
2019-05-09T23:47:08.288Z,11.91
2019-05-09T23:49:37.849Z,11.86
2019-05-09T23:52:07.165Z,11.81
2019-05-09T23:54:54.401Z,11.77
2019-05-09T23:57:41.532Z,11.74
